Texas General Land Office  Texas General
 Land Office
 Oil Spill Prevention
 & Response
Texas Automated Buoy System
Real Time Ocean Observations
Supporting Oil Spill Prevention and Response since 1995
Geochemical and Environmental Research Group

TABS Buoy J -- Texas Automated Buoy System

TABS Buoy J Conditions at 11/22/2014 02:22 UTC (11/21/2014 20:22 CST)
26° 11.4840'N   97° 3.0420'W
AA3900 DCS - sensor depth 2m
Anemometer height: 4m
Water Depth: 68 feet (20 meters)
Speed: N/A            Direction: N/A            Water Temp: 0°C (32 °F)
System Voltage: 0.0 V Signal Strength: 0.0 dB Ping Count: 0
Wind: 4.1 m/s (7.9 kts)
          From 337°T (NNW)
Air Temp: 16 °C (61 °F)
Relative Humidity:  N/A
Pressure: 1023.2 mb (30.21 inHg)

  


IMPORTANT: Notice to Mariners


Today's Velocity Data (download)

   Date   |  Time  |   East |   North|   Speed|  Dir | WaterT |
          |  (UTC) |  (cm/s)|  (cm/s)|  (cm/s)| (°T) |  (°C)  |
==========+========+========+========+========+======+========+



       
 

Today's Temperature - Salinity Data     (Download)


   Date   |  Time  |   Temp |   Cond |Salinity| Density|SoundVel|
          |  (UTC) |   (°C) | (ms/cm)|        | kg/m^3 |  (m/s) |
==========+========+========+========+========+========+========+
11/19/2014 00:00:00    19.42     4.61    33.96     0.00     0.00
11/19/2014 00:30:00    19.43     4.61    33.96     0.00     0.00
11/19/2014 01:00:00    19.42     4.61    33.96     0.00     0.00
11/19/2014 01:30:00    19.40     4.61    33.97     0.00     0.00
11/19/2014 02:00:00    19.41     4.61    33.97     0.00     0.00
11/19/2014 02:30:00    19.35     4.60    33.95     0.00     0.00
11/19/2014 03:00:00    19.35     4.60    33.95     0.00     0.00
11/19/2014 03:30:00    19.36     4.60    33.97     0.00     0.00
11/19/2014 04:00:00    19.38     4.60    33.97     0.00     0.00
11/19/2014 04:30:00    19.36     4.60    33.97     0.00     0.00
11/19/2014 05:30:00    19.28     4.59    33.95     0.00     0.00
11/19/2014 06:00:00    19.26     4.59    33.95     0.00     0.00
11/19/2014 06:30:00    19.24     4.59    33.94     0.00     0.00
11/19/2014 07:00:00    19.26     4.59    33.95     0.00     0.00
11/19/2014 07:30:00    19.22     4.59    33.94     0.00     0.00
11/19/2014 08:00:00    19.23     4.59    33.94     0.00     0.00
11/19/2014 08:30:00    19.19     4.58    33.94     0.00     0.00
11/19/2014 09:00:00    19.17     4.58    33.93     0.00     0.00
11/19/2014 09:30:00    19.16     4.58    33.91     0.00     0.00
11/19/2014 10:00:00    19.16     4.57    33.90     0.00     0.00
11/19/2014 10:30:00    19.14     4.57    33.90     0.00     0.00
11/19/2014 11:00:00    19.15     4.57    33.90     0.00     0.00
11/19/2014 11:30:00    19.15     4.57    33.90     0.00     0.00
11/19/2014 12:00:00    19.11     4.57    33.89     0.00     0.00
11/19/2014 12:30:00    19.10     4.57    33.88     0.00     0.00
11/19/2014 13:00:00    19.09     4.56    33.87     0.00     0.00
11/19/2014 13:30:00    19.11     4.57    33.87     0.00     0.00
11/19/2014 14:00:00    19.10     4.56    33.86     0.00     0.00
11/19/2014 14:30:00    19.10     4.56    33.86     0.00     0.00
11/19/2014 15:00:00    19.13     4.57    33.86     0.00     0.00
11/19/2014 15:30:00    19.15     4.57    33.87     0.00     0.00
11/19/2014 16:00:00    19.16     4.57    33.86     0.00     0.00
11/19/2014 16:30:00    19.23     4.58    33.89     0.00     0.00
11/19/2014 17:00:00    19.26     4.58    33.89     0.00     0.00
11/19/2014 17:30:00    19.26     4.58    33.90     0.00     0.00
11/19/2014 18:00:00    19.29     4.59    33.89     0.00     0.00
11/19/2014 18:30:00    19.24     4.58    33.88     0.00     0.00
11/19/2014 19:00:00    19.21     4.57    33.86     0.00     0.00
11/19/2014 19:30:00    19.17     4.57    33.84     0.00     0.00
11/19/2014 20:00:00    19.16     4.57    33.82     0.00     0.00
11/19/2014 20:30:00    19.14     4.56    33.82     0.00     0.00